createdAt,value
2023-01-08T00:01:50.197Z,4.40
2023-01-08T00:04:18.037Z,4.38
2023-01-08T00:06:44.634Z,4.40
2023-01-08T00:09:11.595Z,4.63
2023-01-08T00:11:38.193Z,3.42
2023-01-08T00:14:04.516Z,4.22
2023-01-08T00:16:30.859Z,4.72
2023-01-08T00:18:57.186Z,5.53
2023-01-08T00:21:23.672Z,4.50
2023-01-08T00:23:50.188Z,4.70
2023-01-08T00:26:16.529Z,3.53
2023-01-08T00:28:42.874Z,5.15
2023-01-08T00:31:10.800Z,4.93
2023-01-08T00:33:37.668Z,4.60
2023-01-08T00:36:08.645Z,5.28
2023-01-08T00:38:34.993Z,5.35
2023-01-08T00:41:01.296Z,4.82
2023-01-08T00:43:27.613Z,3.95
2023-01-08T00:45:54.245Z,4.72
2023-01-08T00:48:22.555Z,5.80
2023-01-08T00:50:49.575Z,4.03
2023-01-08T00:53:15.991Z,4.20
2023-01-08T00:55:42.435Z,5.28
2023-01-08T00:58:08.714Z,3.92
2023-01-08T01:00:35.081Z,4.05
2023-01-08T01:03:01.434Z,4.13
2023-01-08T01:05:27.813Z,6.05
2023-01-08T01:07:54.267Z,3.78
2023-01-08T01:10:20.580Z,3.17
2023-01-08T01:12:46.964Z,4.25
2023-01-08T01:15:14.799Z,3.28
2023-01-08T01:17:42.117Z,4.75
2023-01-08T01:20:09.769Z,5.72
2023-01-08T01:22:36.328Z,3.33
2023-01-08T01:25:03.120Z,3.58
2023-01-08T01:27:29.481Z,3.90
2023-01-08T01:29:55.805Z,3.78
2023-01-08T01:32:22.221Z,2.42
2023-01-08T01:34:48.611Z,4.55
2023-01-08T01:37:15.361Z,3.03
2023-01-08T01:39:43.431Z,2.95
2023-01-08T01:42:35.530Z,3.30
2023-01-08T01:45:02.787Z,3.42
2023-01-08T01:47:37.757Z,3.45
2023-01-08T01:50:22.507Z,4.07
2023-01-08T01:53:00.331Z,3.38
2023-01-08T01:55:27.466Z,4.65
2023-01-08T02:01:15.694Z,3.20
2023-01-08T02:03:42.160Z,5.28
2023-01-08T02:06:08.445Z,4.30
2023-01-08T02:08:49.945Z,2.60
2023-01-08T02:11:36.566Z,4.13
2023-01-08T02:14:16.550Z,3.55
2023-01-08T02:16:47.519Z,3.13
2023-01-08T02:19:23.803Z,3.58
2023-01-08T02:21:59.356Z,3.00
2023-01-08T02:24:44.296Z,3.00
2023-01-08T02:27:12.323Z,2.80
2023-01-08T02:29:39.336Z,3.83
2023-01-08T02:32:05.639Z,2.60
2023-01-08T02:34:32.733Z,4.15
2023-01-08T02:36:59.142Z,2.42
2023-01-08T02:39:25.527Z,3.63
2023-01-08T02:41:55.047Z,2.60
2023-01-08T02:44:26.075Z,3.17
2023-01-08T02:46:54.375Z,2.85
2023-01-08T02:49:21.791Z,2.10
2023-01-08T02:51:50.111Z,3.03
2023-01-08T02:54:18.974Z,2.22
2023-01-08T02:56:49.690Z,2.45
2023-01-08T02:59:16.769Z,2.53
2023-01-08T03:01:43.342Z,2.15
2023-01-08T03:04:18.084Z,3.42
2023-01-08T03:06:44.531Z,2.42
2023-01-08T03:09:11.291Z,4.10
2023-01-08T03:11:56.197Z,2.20
2023-01-08T03:14:28.623Z,3.63
2023-01-08T03:17:15.338Z,2.30
2023-01-08T03:19:44.130Z,2.55
2023-01-08T03:22:12.148Z,3.10
2023-01-08T03:24:39.729Z,2.40
2023-01-08T03:27:07.447Z,2.05
2023-01-08T03:29:34.235Z,1.98
2023-01-08T03:32:03.003Z,1.83
2023-01-08T03:34:31.545Z,2.30
2023-01-08T03:37:00.085Z,1.98
2023-01-08T03:39:30.211Z,2.13
2023-01-08T03:41:58.619Z,1.83
2023-01-08T03:44:25.014Z,2.97
2023-01-08T03:46:54.127Z,2.33
2023-01-08T03:49:21.338Z,2.30
2023-01-08T03:51:47.691Z,1.60
2023-01-08T03:54:15.418Z,3.15
2023-01-08T03:56:41.975Z,2.33
2023-01-08T03:59:08.420Z,1.98
2023-01-08T04:01:34.972Z,2.53
2023-01-08T04:04:01.323Z,1.73
2023-01-08T04:06:27.664Z,1.63
2023-01-08T04:08:53.954Z,2.08
2023-01-08T04:11:20.381Z,1.63
2023-01-08T04:13:46.692Z,1.67
2023-01-08T04:16:13.063Z,1.38
2023-01-08T04:18:39.601Z,1.70
2023-01-08T04:21:06.036Z,2.20
2023-01-08T04:23:32.614Z,1.23
2023-01-08T04:25:59.057Z,1.73
2023-01-08T04:28:25.650Z,1.77
2023-01-08T04:30:51.969Z,1.40
2023-01-08T04:33:18.436Z,0.95
2023-01-08T04:35:44.786Z,0.93
2023-01-08T04:38:11.752Z,1.35
2023-01-08T04:40:38.098Z,1.85
2023-01-08T04:43:04.539Z,1.23
2023-01-08T04:45:30.878Z,1.02
2023-01-08T04:47:57.598Z,1.25
2023-01-08T04:50:24.060Z,1.25
2023-01-08T04:52:50.373Z,1.20
2023-01-08T04:55:16.987Z,2.25
2023-01-08T04:57:43.325Z,1.35
2023-01-08T05:00:10.047Z,1.05
2023-01-08T05:02:36.855Z,1.40
2023-01-08T05:05:03.513Z,1.10
2023-01-08T05:07:29.838Z,1.23
2023-01-08T05:09:56.245Z,1.48
2023-01-08T05:12:22.543Z,1.48
2023-01-08T05:14:48.882Z,1.33
2023-01-08T05:17:15.295Z,0.88
2023-01-08T05:19:41.665Z,1.25
2023-01-08T05:22:08.028Z,0.60
2023-01-08T05:24:34.566Z,0.77
2023-01-08T05:27:00.875Z,1.00
2023-01-08T05:29:27.184Z,0.60
2023-01-08T05:31:53.619Z,1.20
2023-01-08T05:34:19.951Z,0.95
2023-01-08T05:36:46.272Z,0.70
2023-01-08T05:39:12.672Z,0.57
2023-01-08T05:41:39.017Z,1.00
2023-01-08T05:44:05.401Z,0.90
2023-01-08T05:46:31.788Z,0.70
2023-01-08T05:48:58.408Z,0.98
2023-01-08T05:51:24.811Z,1.13
2023-01-08T05:53:51.293Z,1.20
2023-01-08T05:56:17.660Z,1.33
2023-01-08T05:58:44.003Z,1.05
2023-01-08T06:01:12.021Z,1.20
2023-01-08T06:03:38.815Z,0.80
2023-01-08T06:06:06.256Z,1.50
2023-01-08T06:08:32.784Z,1.25
2023-01-08T06:11:00.665Z,1.05
2023-01-08T06:13:27.285Z,1.48
2023-01-08T06:15:53.653Z,1.33
2023-01-08T06:18:20.383Z,1.13
2023-01-08T06:20:46.709Z,1.50
2023-01-08T06:23:13.102Z,1.10
2023-01-08T06:25:39.407Z,1.20
2023-01-08T06:28:05.743Z,1.30
2023-01-08T06:30:32.126Z,0.98
2023-01-08T06:32:59.020Z,0.98
2023-01-08T06:35:26.086Z,1.20
2023-01-08T06:37:54.218Z,0.70
2023-01-08T06:40:20.591Z,0.80
2023-01-08T06:42:47.036Z,1.27
2023-01-08T06:45:13.437Z,0.90
2023-01-08T06:47:39.808Z,0.65
2023-01-08T06:50:06.892Z,0.93
2023-01-08T06:52:33.274Z,1.15
2023-01-08T06:54:59.595Z,1.25
2023-01-08T06:57:25.885Z,0.80
2023-01-08T06:59:52.164Z,1.55
2023-01-08T07:02:19.197Z,1.10
2023-01-08T07:04:45.603Z,1.10
2023-01-08T07:07:15.063Z,0.80
2023-01-08T07:09:42.600Z,1.10
2023-01-08T07:12:13.449Z,0.98
2023-01-08T07:14:40.185Z,1.30
2023-01-08T07:17:07.032Z,1.67
2023-01-08T07:19:33.903Z,1.20
2023-01-08T07:22:00.298Z,2.30
2023-01-08T07:24:26.830Z,1.13
2023-01-08T07:26:53.161Z,1.85
2023-01-08T07:29:19.636Z,1.63
2023-01-08T07:31:46.266Z,1.17
2023-01-08T07:34:15.192Z,1.67
2023-01-08T07:36:41.771Z,1.63
2023-01-08T07:39:08.273Z,1.08
2023-01-08T07:41:34.709Z,1.00
2023-01-08T07:44:01.136Z,1.30
2023-01-08T07:46:27.569Z,1.42
2023-01-08T07:48:54.021Z,2.55
2023-01-08T07:51:20.506Z,1.30
2023-01-08T07:53:46.948Z,1.65
2023-01-08T07:56:13.285Z,1.60
2023-01-08T07:58:39.641Z,2.83
2023-01-08T08:01:08.396Z,3.45
2023-01-08T08:03:34.768Z,4.65
2023-01-08T08:06:01.279Z,2.63
2023-01-08T08:08:27.629Z,1.30
2023-01-08T08:10:53.977Z,1.77
2023-01-08T08:13:20.343Z,2.22
2023-01-08T08:15:46.659Z,1.95
2023-01-08T08:18:13.087Z,1.30
2023-01-08T08:20:39.694Z,1.88
2023-01-08T08:23:07.430Z,1.50
2023-01-08T08:25:34.004Z,1.20
2023-01-08T08:28:00.907Z,2.35
2023-01-08T08:30:28.248Z,1.90
2023-01-08T08:32:55.219Z,1.70
2023-01-08T08:35:22.183Z,1.73
2023-01-08T08:37:48.924Z,1.13
2023-01-08T08:40:15.424Z,1.60
2023-01-08T08:42:41.726Z,1.58
2023-01-08T08:45:08.774Z,2.97
2023-01-08T08:47:35.120Z,1.10
2023-01-08T08:50:02.256Z,2.40
2023-01-08T08:52:29.990Z,1.85
2023-01-08T08:54:56.425Z,1.63
2023-01-08T08:57:26.950Z,2.50
2023-01-08T08:59:53.392Z,1.77
2023-01-08T09:02:20.073Z,1.48
2023-01-08T09:04:46.551Z,2.97
2023-01-08T09:07:12.885Z,2.35
2023-01-08T09:09:39.297Z,2.00
2023-01-08T09:12:05.750Z,1.30
2023-01-08T09:14:32.206Z,2.15
2023-01-08T09:16:58.515Z,5.72
2023-01-08T09:19:24.869Z,3.85
2023-01-08T09:21:51.276Z,2.30
2023-01-08T09:24:17.698Z,2.95
2023-01-08T09:26:44.055Z,2.25
2023-01-08T09:29:10.520Z,2.38
2023-01-08T09:31:37.027Z,1.67
2023-01-08T09:34:03.374Z,3.88
2023-01-08T09:36:29.765Z,1.55
2023-01-08T09:38:56.069Z,1.80
2023-01-08T09:41:27.243Z,2.30
2023-01-08T09:43:54.670Z,2.33
2023-01-08T09:46:22.415Z,4.40
2023-01-08T09:48:49.824Z,3.75
2023-01-08T09:51:17.380Z,2.95
2023-01-08T09:53:44.659Z,1.42
2023-01-08T09:56:14.173Z,1.95
2023-01-08T09:58:40.594Z,1.75
2023-01-08T10:01:07.942Z,3.13
2023-01-08T10:03:45.009Z,1.60
2023-01-08T10:06:12.048Z,1.70
2023-01-08T10:08:38.769Z,1.80
2023-01-08T10:11:05.922Z,1.70
2023-01-08T10:13:32.766Z,2.28
2023-01-08T10:16:00.202Z,1.83
2023-01-08T10:18:28.146Z,3.58
2023-01-08T10:20:54.789Z,2.10
2023-01-08T10:23:22.915Z,1.92
2023-01-08T10:25:57.633Z,2.25
2023-01-08T10:28:32.507Z,1.05
2023-01-08T10:31:03.828Z,1.85
2023-01-08T10:33:31.699Z,1.17
2023-01-08T10:36:00.109Z,1.17
2023-01-08T10:38:34.154Z,2.45
2023-01-08T10:41:03.309Z,2.08
2023-01-08T10:43:31.400Z,1.00
2023-01-08T10:46:07.920Z,1.15
2023-01-08T10:48:37.068Z,1.67
2023-01-08T10:51:07.095Z,1.33
2023-01-08T10:53:33.838Z,1.25
2023-01-08T10:56:04.085Z,1.38
2023-01-08T10:58:30.795Z,2.13
2023-01-08T11:01:08.870Z,1.70
2023-01-08T11:03:35.314Z,1.23
2023-01-08T11:06:09.830Z,2.72
2023-01-08T11:08:36.398Z,1.83
2023-01-08T11:11:02.977Z,0.82
2023-01-08T11:13:29.700Z,1.52
2023-01-08T11:16:16.466Z,1.00
2023-01-08T11:18:45.302Z,1.80
2023-01-08T11:21:19.344Z,2.08
2023-01-08T11:23:46.092Z,1.52
2023-01-08T11:26:22.626Z,1.90
2023-01-08T11:29:18.321Z,1.00
2023-01-08T11:31:54.598Z,1.02
2023-01-08T11:34:29.906Z,0.95
2023-01-08T11:37:11.806Z,2.30
2023-01-08T11:39:38.829Z,1.30
2023-01-08T11:42:08.211Z,1.65
2023-01-08T11:44:37.504Z,2.03
2023-01-08T11:47:06.650Z,2.63
2023-01-08T11:49:45.481Z,1.85
2023-01-08T11:52:29.332Z,1.50
2023-01-08T11:55:02.991Z,0.90
2023-01-08T11:57:42.136Z,1.40
2023-01-08T12:00:23.745Z,0.80
2023-01-08T12:02:58.348Z,1.02
2023-01-08T12:05:29.664Z,1.92
2023-01-08T12:08:04.058Z,1.40
2023-01-08T12:10:30.457Z,1.95
2023-01-08T12:12:56.755Z,2.10
2023-01-08T12:15:26.570Z,1.80
2023-01-08T12:17:58.773Z,1.80
2023-01-08T12:20:30.226Z,1.80
2023-01-08T12:23:05.113Z,2.38
2023-01-08T12:25:34.590Z,2.45
2023-01-08T12:28:17.723Z,5.20
2023-01-08T12:30:56.791Z,2.00
2023-01-08T12:33:23.976Z,2.25
2023-01-08T12:35:52.335Z,2.15
2023-01-08T12:38:28.519Z,1.88
2023-01-08T12:40:59.637Z,1.48
2023-01-08T12:43:28.622Z,1.80
2023-01-08T12:45:57.017Z,2.05
2023-01-08T12:48:24.975Z,2.63
2023-01-08T12:51:01.784Z,2.78
2023-01-08T12:53:40.336Z,2.50
2023-01-08T12:56:16.281Z,5.13
2023-01-08T12:58:50.269Z,3.70
2023-01-08T13:01:31.785Z,3.13
2023-01-08T13:03:59.090Z,2.05
2023-01-08T13:06:25.878Z,3.53
2023-01-08T13:08:53.790Z,2.28
2023-01-08T13:11:34.086Z,1.50
2023-01-08T13:14:02.254Z,1.23
2023-01-08T13:16:29.059Z,2.88
2023-01-08T13:18:59.961Z,3.22
2023-01-08T13:21:34.250Z,4.03
2023-01-08T13:24:05.299Z,1.88
2023-01-08T13:26:33.142Z,1.88
2023-01-08T13:29:22.909Z,1.98
2023-01-08T13:31:49.330Z,1.40
2023-01-08T13:34:20.245Z,1.40
2023-01-08T13:36:56.360Z,1.20
2023-01-08T13:39:23.925Z,2.40
2023-01-08T13:41:57.734Z,2.63
2023-01-08T13:44:24.025Z,3.28
2023-01-08T13:47:13.764Z,3.08
2023-01-08T13:49:53.045Z,2.28
2023-01-08T13:52:38.220Z,1.00
2023-01-08T13:55:06.294Z,2.53
2023-01-08T13:57:40.132Z,1.10
2023-01-08T14:00:08.159Z,1.30
2023-01-08T14:02:42.588Z,1.52
2023-01-08T14:05:18.584Z,1.08
2023-01-08T14:07:45.147Z,1.02
2023-01-08T14:10:12.968Z,1.10
2023-01-08T14:12:39.526Z,1.38
2023-01-08T14:15:09.913Z,1.10
2023-01-08T14:17:36.353Z,1.85
2023-01-08T14:20:02.735Z,1.85
2023-01-08T14:22:33.633Z,2.15
2023-01-08T14:25:04.617Z,2.03
2023-01-08T14:27:31.610Z,1.58
2023-01-08T14:29:58.494Z,1.35
2023-01-08T14:32:25.993Z,1.48
2023-01-08T14:34:53.548Z,1.25
2023-01-08T14:37:20.146Z,1.20
2023-01-08T14:39:48.485Z,1.20
2023-01-08T14:42:33.353Z,1.67
2023-01-08T14:45:20.747Z,0.68
2023-01-08T14:47:51.201Z,0.82
2023-01-08T14:50:28.210Z,1.08
2023-01-08T14:53:14.815Z,4.35
2023-01-08T14:55:42.567Z,1.23
2023-01-08T14:58:14.029Z,3.28
2023-01-08T15:00:40.578Z,2.20
2023-01-08T15:03:07.123Z,1.02
2023-01-08T15:05:33.435Z,1.50
2023-01-08T15:08:01.643Z,2.53
2023-01-08T15:10:37.162Z,1.33
2023-01-08T15:13:08.419Z,3.25
2023-01-08T15:15:36.045Z,2.35
2023-01-08T15:18:04.665Z,2.25
2023-01-08T15:20:31.878Z,2.58
2023-01-08T15:22:58.734Z,1.40
2023-01-08T15:25:28.271Z,1.90
2023-01-08T15:28:02.051Z,2.22
2023-01-08T15:30:31.486Z,1.98
2023-01-08T15:33:08.315Z,1.70
2023-01-08T15:35:34.715Z,1.70
2023-01-08T15:38:01.044Z,1.58
2023-01-08T15:40:27.343Z,3.05
2023-01-08T15:43:11.728Z,1.55
2023-01-08T15:45:41.090Z,1.25
2023-01-08T15:48:08.376Z,2.13
2023-01-08T15:50:38.815Z,1.77
2023-01-08T15:53:18.656Z,1.98
2023-01-08T15:55:47.016Z,1.75
2023-01-08T15:58:13.918Z,1.45
2023-01-08T16:00:41.037Z,2.25
2023-01-08T16:03:07.861Z,1.30
2023-01-08T16:05:34.742Z,1.52
2023-01-08T16:08:01.166Z,2.80
2023-01-08T16:10:29.085Z,2.00
2023-01-08T16:12:55.728Z,2.25
2023-01-08T16:15:22.809Z,2.33
2023-01-08T16:17:49.145Z,3.13
2023-01-08T16:20:15.684Z,0.95
2023-01-08T16:22:42.069Z,1.27
2023-01-08T16:25:09.374Z,1.33
2023-01-08T16:27:37.807Z,1.67
2023-01-08T16:30:04.935Z,2.35
2023-01-08T16:32:31.335Z,3.60
2023-01-08T16:34:57.700Z,4.70
2023-01-08T16:37:24.099Z,4.38
2023-01-08T16:39:50.465Z,4.38
2023-01-08T16:42:16.850Z,2.05
2023-01-08T16:44:43.816Z,2.78
2023-01-08T16:47:10.179Z,4.47
2023-01-08T16:49:36.486Z,4.07
2023-01-08T16:52:03.019Z,1.95
2023-01-08T16:54:29.357Z,2.35
2023-01-08T16:56:55.641Z,6.28
2023-01-08T16:59:23.935Z,2.33
2023-01-08T17:01:51.010Z,2.60
2023-01-08T17:04:17.426Z,1.33
2023-01-08T17:06:43.838Z,3.97
2023-01-08T17:09:11.611Z,3.42
2023-01-08T17:11:38.396Z,1.77
2023-01-08T17:14:04.730Z,3.38
2023-01-08T17:16:31.064Z,1.45
2023-01-08T17:18:57.559Z,2.53
2023-01-08T17:21:23.985Z,3.17
2023-01-08T17:23:50.351Z,1.90
2023-01-08T17:26:19.744Z,2.72
2023-01-08T17:28:47.124Z,2.28
2023-01-08T17:31:14.428Z,3.55
2023-01-08T17:33:41.205Z,4.00
2023-01-08T17:36:14.639Z,5.30
2023-01-08T17:38:43.092Z,4.65
2023-01-08T17:41:09.640Z,1.95
2023-01-08T17:43:36.542Z,2.30
2023-01-08T17:46:06.472Z,2.80
2023-01-08T17:48:33.246Z,3.92
2023-01-08T17:51:02.264Z,2.17
2023-01-08T17:53:30.194Z,2.63
2023-01-08T17:55:58.520Z,3.13
2023-01-08T17:58:24.874Z,2.60
2023-01-08T18:00:51.255Z,2.83
2023-01-08T18:03:17.599Z,2.92
2023-01-08T18:05:43.929Z,2.00
2023-01-08T18:08:10.293Z,1.60
2023-01-08T18:10:37.168Z,2.70
2023-01-08T18:13:03.450Z,1.60
2023-01-08T18:15:29.808Z,3.00
2023-01-08T18:17:56.145Z,1.45
2023-01-08T18:20:22.489Z,3.25
2023-01-08T18:22:48.904Z,1.85
2023-01-08T18:25:15.254Z,4.22
2023-01-08T18:27:41.542Z,6.70
2023-01-08T18:30:08.235Z,5.30
2023-01-08T18:32:34.730Z,6.22
2023-01-08T18:35:03.712Z,3.20
2023-01-08T18:37:31.870Z,3.92
2023-01-08T18:39:58.289Z,3.78
2023-01-08T18:42:27.826Z,4.53
2023-01-08T18:44:55.866Z,5.10
2023-01-08T18:47:23.639Z,4.72
2023-01-08T18:49:58.477Z,3.88
2023-01-08T18:52:25.478Z,3.83
2023-01-08T18:54:53.120Z,1.40
2023-01-08T18:57:19.535Z,2.75
2023-01-08T18:59:47.651Z,3.28
2023-01-08T19:02:17.840Z,2.78
2023-01-08T19:04:44.273Z,2.15
2023-01-08T19:07:10.573Z,2.13
2023-01-08T19:09:36.994Z,2.75
2023-01-08T19:12:03.479Z,1.73
2023-01-08T19:14:30.419Z,1.30
2023-01-08T19:16:56.735Z,2.47
2023-01-08T19:19:23.189Z,2.22
2023-01-08T19:21:49.524Z,4.78
2023-01-08T19:24:15.854Z,4.13
2023-01-08T19:26:42.558Z,2.95
2023-01-08T19:29:08.887Z,2.67
2023-01-08T19:31:35.432Z,2.03
2023-01-08T19:34:02.231Z,1.88
2023-01-08T19:36:28.663Z,2.25
2023-01-08T19:38:55.482Z,4.07
2023-01-08T19:41:40.516Z,1.67
2023-01-08T19:44:08.590Z,2.10
2023-01-08T19:46:36.052Z,2.67
2023-01-08T19:49:03.193Z,2.13
2023-01-08T19:51:29.994Z,2.95
2023-01-08T19:53:56.626Z,1.35
2023-01-08T19:56:23.097Z,1.35
2023-01-08T19:58:49.494Z,2.03
2023-01-08T20:01:17.666Z,1.48
2023-01-08T20:03:44.483Z,2.28
2023-01-08T20:06:14.600Z,3.30
2023-01-08T20:08:40.964Z,1.38
2023-01-08T20:11:11.903Z,1.63
2023-01-08T20:13:38.933Z,2.10
2023-01-08T20:16:06.193Z,3.50
2023-01-08T20:18:33.066Z,2.90
2023-01-08T20:21:25.582Z,1.50
2023-01-08T20:23:59.061Z,2.22
2023-01-08T20:26:26.775Z,1.88
2023-01-08T20:28:54.130Z,2.05
2023-01-08T20:31:21.535Z,0.80
2023-01-08T20:33:48.784Z,1.15
2023-01-08T20:36:22.240Z,2.35
2023-01-08T20:38:56.507Z,1.10
2023-01-08T20:41:24.121Z,1.00
2023-01-08T20:43:50.635Z,1.33
2023-01-08T20:46:17.115Z,1.75
2023-01-08T20:48:47.657Z,1.15
2023-01-08T20:51:15.746Z,1.38
2023-01-08T20:53:42.318Z,1.88
2023-01-08T20:56:09.909Z,0.95
2023-01-08T20:58:37.199Z,2.08
2023-01-08T21:01:04.748Z,2.17
2023-01-08T21:03:31.127Z,1.52
2023-01-08T21:05:57.502Z,3.97
2023-01-08T21:08:23.908Z,6.88
2023-01-08T21:11:00.109Z,2.72
2023-01-08T21:13:26.551Z,2.58
2023-01-08T21:15:53.315Z,3.35
2023-01-08T21:18:19.798Z,3.53
2023-01-08T21:20:46.225Z,2.15
2023-01-08T21:23:12.563Z,2.28
2023-01-08T21:25:38.896Z,1.95
2023-01-08T21:28:05.395Z,1.75
2023-01-08T21:30:31.695Z,1.75
2023-01-08T21:32:57.989Z,2.80
2023-01-08T21:35:26.521Z,2.22
2023-01-08T21:37:52.830Z,3.63
2023-01-08T21:40:19.333Z,3.05
2023-01-08T21:43:04.120Z,3.90
2023-01-08T21:45:30.498Z,2.67
2023-01-08T21:47:58.632Z,3.45
2023-01-08T21:50:25.254Z,3.05
2023-01-08T21:53:10.197Z,3.13
2023-01-08T21:55:36.607Z,3.83
2023-01-08T21:58:02.955Z,2.45
2023-01-08T22:00:29.443Z,1.83
2023-01-08T22:02:55.911Z,1.67
2023-01-08T22:05:22.268Z,1.35
2023-01-08T22:07:48.629Z,2.28
2023-01-08T22:10:15.004Z,3.20
2023-01-08T22:12:42.059Z,1.27
2023-01-08T22:15:09.656Z,2.05
2023-01-08T22:17:36.475Z,2.10
2023-01-08T22:20:03.550Z,1.60
2023-01-08T22:22:29.927Z,1.50
2023-01-08T22:24:56.444Z,1.52
2023-01-08T22:27:22.814Z,1.10
2023-01-08T22:29:49.380Z,1.60
2023-01-08T22:32:15.779Z,2.55
2023-01-08T22:34:42.223Z,1.67
2023-01-08T22:37:08.657Z,1.42
2023-01-08T22:39:35.034Z,1.23
2023-01-08T22:42:01.392Z,1.20
2023-01-08T22:44:27.822Z,1.95
2023-01-08T22:46:54.218Z,1.73
2023-01-08T22:49:20.492Z,2.40
2023-01-08T22:51:46.819Z,2.13
2023-01-08T22:54:14.218Z,2.60
2023-01-08T22:56:40.758Z,1.48
2023-01-08T22:59:07.250Z,1.80
2023-01-08T23:01:33.608Z,2.80
2023-01-08T23:04:00.813Z,3.13
2023-01-08T23:06:28.434Z,2.78
2023-01-08T23:08:55.187Z,2.03
2023-01-08T23:11:22.813Z,1.52
2023-01-08T23:13:49.213Z,2.72
2023-01-08T23:16:16.556Z,2.67
2023-01-08T23:18:42.983Z,2.35
2023-01-08T23:21:10.668Z,2.40
2023-01-08T23:23:37.117Z,2.47
2023-01-08T23:26:07.577Z,1.92
2023-01-08T23:28:33.993Z,3.10
2023-01-08T23:31:00.391Z,2.10
2023-01-08T23:33:26.787Z,2.58
2023-01-08T23:35:53.310Z,2.13
2023-01-08T23:38:19.824Z,2.58
2023-01-08T23:40:46.387Z,3.53
2023-01-08T23:43:12.729Z,2.78
2023-01-08T23:45:39.504Z,2.65
2023-01-08T23:48:06.340Z,2.17
2023-01-08T23:50:32.678Z,3.08
2023-01-08T23:52:59.350Z,3.38
2023-01-08T23:55:25.701Z,4.70
2023-01-08T23:57:52.247Z,3.88
